Time;durP1;ratioP1;P1;durP2;ratioP2;P2;SDS_P1;SDS_P2;PMS_P1;PMS_P2;Temp;Humidity;BMP_temperature;BMP_pressure;BME280_temperature;BME280_humidity;BME280_pressure;Samples;Min_cycle;Max_cycle;Signal;HPM_P1;HPM_P2
2020/12/19 00:00:49;;;;;;;105.58;53.20;;;;;;;2.97;87.98;101456.92;1761148;80;25752;-50
2020/12/19 00:03:16;;;;;;;105.27;55.05;;;;;;;2.95;88.08;101451.80;1761135;81;25686;-48
2020/12/19 00:05:43;;;;;;;101.55;51.37;;;;;;;2.97;88.12;101450.25;1760834;80;25723;-49
2020/12/19 00:08:09;;;;;;;104.97;54.70;;;;;;;2.98;88.12;101451.89;1761110;80;25779;-48
2020/12/19 00:10:36;;;;;;;99.25;52.95;;;;;;;2.97;88.19;101456.39;1760935;81;25803;-49
2020/12/19 00:13:03;;;;;;;108.00;54.03;;;;;;;2.98;88.24;101451.89;1761032;81;25736;-46
2020/12/19 00:15:29;;;;;;;104.47;53.98;;;;;;;2.98;88.25;101456.70;1761186;81;26348;-48
2020/12/19 00:17:56;;;;;;;105.20;55.10;;;;;;;2.99;88.30;101452.16;1761293;81;25676;-48
2020/12/19 00:20:23;;;;;;;110.08;56.25;;;;;;;2.98;88.35;101442.00;1761017;81;26686;-50
2020/12/19 00:22:49;;;;;;;103.30;51.30;;;;;;;2.97;88.19;101447.58;1761016;81;25853;-48
2020/12/19 00:25:16;;;;;;;89.30;47.70;;;;;;;2.95;88.28;101441.64;1761065;80;25719;-47
2020/12/19 00:27:45;;;;;;;101.60;50.80;;;;;;;2.93;88.33;101443.74;1761011;80;25730;-49
2020/12/19 00:30:11;;;;;;;105.43;50.83;;;;;;;2.91;88.32;101441.30;1761093;80;25856;-53
2020/12/19 00:32:40;;;;;;;98.62;52.17;;;;;;;2.88;88.41;101441.75;1761178;81;26331;-48
2020/12/19 00:35:09;;;;;;;103.20;53.02;;;;;;;2.86;88.47;101444.34;1759890;80;25720;-48
2020/12/19 00:37:41;;;;;;;107.50;51.02;;;;;;;2.85;88.45;101441.39;1761057;80;25861;-48
2020/12/19 00:40:09;;;;;;;110.68;55.67;;;;;;;2.82;88.48;101448.00;1761066;80;25746;-48
2020/12/19 00:42:41;;;;;;;102.42;50.90;;;;;;;2.80;88.54;101436.20;1761068;80;26297;-46
2020/12/19 00:45:08;;;;;;;100.53;50.05;;;;;;;2.80;88.55;101436.73;1761337;81;26649;-50
2020/12/19 00:47:37;;;;;;;106.35;52.00;;;;;;;2.79;88.58;101438.59;1761040;80;25932;-48
2020/12/19 00:50:07;;;;;;;98.95;50.15;;;;;;;2.79;88.66;101443.10;1760735;81;25871;-47
2020/12/19 00:52:34;;;;;;;97.80;48.33;;;;;;;2.80;88.73;101447.41;1761145;80;26336;-49
2020/12/19 00:55:01;;;;;;;93.07;50.03;;;;;;;2.79;88.73;101443.94;1761314;81;26070;-47
2020/12/19 00:57:32;;;;;;;102.82;51.63;;;;;;;2.79;88.55;101442.60;1761050;80;26290;-49
2020/12/19 01:00:00;;;;;;;100.65;51.02;;;;;;;2.78;88.54;101441.49;1732975;81;36716;-49
2020/12/19 01:02:30;;;;;;;98.80;50.30;;;;;;;2.77;88.53;101438.52;1729197;82;25771;-46
2020/12/19 01:04:56;;;;;;;;;;;;;;;2.74;88.45;101440.30;1719167;83;25828;-48
2020/12/19 01:07:23;;;;;;;106.90;49.80;;;;;;;2.70;88.40;101431.93;1708703;82;25938;-49
2020/12/19 01:09:50;;;;;;;115.00;52.05;;;;;;;2.67;88.35;101429.70;1708470;82;25799;-46
2020/12/19 01:12:19;;;;;;;102.82;51.98;;;;;;;2.65;88.32;101437.67;1708492;83;25767;-46
2020/12/19 01:14:45;;;;;;;107.30;49.83;;;;;;;2.60;88.37;101431.14;1731562;81;25693;-50
2020/12/19 01:17:12;;;;;;;104.03;49.83;;;;;;;2.56;88.24;101431.31;1708571;83;25781;-47
2020/12/19 01:19:39;;;;;;;102.50;50.90;;;;;;;2.53;88.27;101433.09;1731019;81;25808;-45
2020/12/19 01:22:06;;;;;;;108.32;50.65;;;;;;;2.49;88.22;101433.27;1731295;81;26689;-50
2020/12/19 01:24:34;;;;;;;101.78;50.48;;;;;;;2.47;88.02;101434.52;1731268;81;25653;-52
2020/12/19 01:27:01;;;;;;;99.62;50.58;;;;;;;2.42;87.94;101432.55;1731169;81;25764;-50
2020/12/19 01:29:28;;;;;;;105.22;50.60;;;;;;;2.39;87.90;101425.80;1708612;83;26008;-49
2020/12/19 01:31:55;;;;;;;100.95;50.88;;;;;;;2.34;87.66;101427.52;1731313;81;25758;-48
2020/12/19 01:34:21;;;;;;;95.80;49.40;;;;;;;2.25;87.25;101427.02;1731150;81;26165;-47
2020/12/19 01:36:48;;;;;;;101.95;50.38;;;;;;;2.19;87.03;101426.58;1708550;83;25881;-47
2020/12/19 01:39:14;;;;;;;99.52;49.60;;;;;;;2.11;86.77;101430.88;1731233;81;25817;-48
2020/12/19 01:41:41;;;;;;;91.75;48.48;;;;;;;2.01;86.54;101422.90;1731190;82;26209;-51
2020/12/19 01:44:08;;;;;;;92.33;49.23;;;;;;;1.94;86.44;101418.17;1708680;83;25692;-50
2020/12/19 01:46:56;;;;;;;89.58;47.53;;;;;;;1.86;86.23;101421.94;1731341;81;26945;-52
2020/12/19 01:49:26;;;;;;;96.37;47.93;;;;;;;1.78;86.13;101420.89;1731474;82;26297;-47
2020/12/19 01:51:57;;;;;;;89.22;47.80;;;;;;;1.67;86.10;101422.98;1731531;82;25397;-53
2020/12/19 01:54:25;;;;;;;135.65;48.95;;;;;;;1.60;86.06;101431.55;1731366;81;25816;-50
2020/12/19 01:56:54;;;;;;;122.98;48.73;;;;;;;1.55;86.36;101428.73;1708328;83;25955;-47
2020/12/19 01:59:23;;;;;;;128.27;50.33;;;;;;;1.50;86.65;101422.75;1732598;82;25740;-46
2020/12/19 02:01:56;;;;;;;124.80;48.50;;;;;;;1.46;86.72;101421.05;1732016;82;25713;-45
2020/12/19 02:04:25;;;;;;;116.37;49.42;;;;;;;1.40;86.90;101420.58;1731639;82;25590;-48
2020/12/19 02:06:55;;;;;;;123.20;48.13;;;;;;;1.37;87.01;101421.02;1733154;82;25729;-45
2020/12/19 02:09:25;;;;;;;131.22;49.75;;;;;;;1.33;87.13;101415.84;1710349;83;25609;-48
2020/12/19 02:11:52;;;;;;;146.90;49.98;;;;;;;1.30;87.22;101413.08;1730146;82;26235;-45
2020/12/19 02:14:19;;;;;;;125.70;48.83;;;;;;;1.27;87.36;101416.17;1730073;82;25714;-48
2020/12/19 02:16:56;;;;;;;134.40;49.42;;;;;;;1.25;87.47;101416.11;1727594;83;25685;-47
2020/12/19 02:19:24;;;;;;;103.45;47.25;;;;;;;1.22;87.49;101420.02;1729963;82;25710;-49
2020/12/19 02:21:52;;;;;;;101.85;47.40;;;;;;;1.19;87.54;101415.64;1701627;84;25770;-49
2020/12/19 02:24:19;;;;;;;139.10;48.30;;;;;;;1.15;87.57;101415.27;1727621;83;25799;-49
2020/12/19 02:26:51;;;;;;;106.30;48.90;;;;;;;1.13;87.56;101415.20;1720474;83;25740;-49
2020/12/19 02:29:18;;;;;;;109.83;46.60;;;;;;;1.09;87.61;101406.80;1726929;83;25682;-48
2020/12/19 02:31:45;;;;;;;128.70;48.30;;;;;;;1.06;87.63;101408.06;1730374;82;25646;-46
2020/12/19 02:34:13;;;;;;;114.95;43.92;;;;;;;1.04;87.69;101407.48;1701680;84;25740;-49
2020/12/19 02:36:40;;;;;;;103.47;48.30;;;;;;;1.00;87.68;101414.78;1727522;82;25710;-46
2020/12/19 02:39:08;;;;;;;104.70;43.30;;;;;;;0.98;87.80;101413.66;1720478;83;25657;-46
2020/12/19 02:41:40;;;;;;;99.62;46.05;;;;;;;0.97;87.86;101418.71;1727630;83;25233;-46
2020/12/19 02:44:14;;;;;;;89.30;44.03;;;;;;;0.95;87.91;101418.61;1720478;83;25672;-46
2020/12/19 02:46:42;;;;;;;110.80;45.35;;;;;;;0.95;87.99;101422.61;1727639;83;25665;-45
2020/12/19 02:49:09;;;;;;;95.95;43.13;;;;;;;0.95;88.02;101425.27;1720588;83;26354;-46
2020/12/19 02:51:35;;;;;;;123.47;44.90;;;;;;;0.94;88.11;101423.14;1727460;83;25599;-45
2020/12/19 02:54:03;;;;;;;118.30;44.15;;;;;;;0.95;88.16;101414.62;1720560;83;25648;-45
2020/12/19 02:56:30;;;;;;;103.47;44.10;;;;;;;0.96;88.16;101413.59;1727460;83;25674;-45
2020/12/19 02:58:56;;;;;;;97.17;41.05;;;;;;;0.95;88.16;101410.09;1720604;83;25629;-45
2020/12/19 03:01:31;;;;;;;118.80;44.63;;;;;;;0.95;88.14;101417.28;1727507;83;26344;-47
2020/12/19 03:03:59;;;;;;;93.92;41.50;;;;;;;0.95;88.17;101419.42;1724890;83;25647;-45
2020/12/19 03:06:26;;;;;;;98.87;43.13;;;;;;;0.96;88.17;101417.07;1701637;84;25712;-45
2020/12/19 03:08:53;;;;;;;102.62;44.63;;;;;;;0.98;88.20;101420.33;1727498;83;25623;-44
2020/12/19 03:11:19;;;;;;;96.35;41.53;;;;;;;0.99;88.15;101423.80;1720475;83;26214;-49
2020/12/19 03:13:46;;;;;;;117.55;41.35;;;;;;;0.99;88.04;101419.80;1727505;83;26860;-48
2020/12/19 03:16:12;;;;;;;99.03;39.55;;;;;;;0.97;88.04;101424.04;1720437;83;25713;-46
2020/12/19 03:18:39;;;;;;;141.50;39.98;;;;;;;0.96;87.97;101425.06;1702324;84;25624;-44
2020/12/19 03:21:06;;;;;;;91.72;41.20;;;;;;;0.96;88.12;101425.59;1702339;84;25811;-47
2020/12/19 03:23:32;;;;;;;120.67;40.90;;;;;;;0.95;88.12;101430.61;1727507;83;25647;-48
2020/12/19 03:25:59;;;;;;;101.78;41.70;;;;;;;0.93;88.15;101425.48;1720439;83;26145;-47
2020/12/19 03:28:25;;;;;;;112.00;40.73;;;;;;;0.94;88.24;101435.12;1702321;84;25845;-44
2020/12/19 03:30:52;;;;;;;103.25;38.98;;;;;;;0.94;88.31;101427.13;1727478;83;25580;-45
2020/12/19 03:33:19;;;;;;;97.17;37.85;;;;;;;0.93;88.34;101428.95;1720404;83;26324;-44
2020/12/19 03:35:45;;;;;;;101.15;38.20;;;;;;;0.91;88.39;101426.23;1727463;83;25671;-47
2020/12/19 03:38:12;;;;;;;99.25;39.50;;;;;;;0.90;88.47;101427.25;1720566;83;26312;-44
2020/12/19 03:40:39;;;;;;;105.78;40.48;;;;;;;0.91;88.55;101423.56;1702253;84;25723;-45
2020/12/19 03:43:05;;;;;;;104.63;38.33;;;;;;;0.92;88.64;101424.68;1727497;83;25181;-49
2020/12/19 03:45:32;;;;;;;87.10;39.90;;;;;;;0.92;88.62;101420.69;1720439;83;25692;-45
2020/12/19 03:47:58;;;;;;;86.30;39.58;;;;;;;0.93;88.65;101408.17;1727431;83;25691;-46
2020/12/19 03:50:25;;;;;;;83.82;40.20;;;;;;;0.93;88.63;101406.84;1720622;83;26370;-46
2020/12/19 03:52:52;;;;;;;88.87;36.95;;;;;;;0.93;88.63;101406.84;1702312;84;25732;-48
2020/12/19 03:55:18;;;;;;;83.82;38.98;;;;;;;0.92;88.58;101397.23;1727540;83;25649;-47
2020/12/19 03:57:45;;;;;;;89.15;37.83;;;;;;;0.92;88.60;101398.56;1720493;83;25663;-49
2020/12/19 04:00:12;;;;;;;94.58;37.55;;;;;;;0.91;88.55;101397.73;1727477;83;25575;-46
2020/12/19 04:02:38;;;;;;;83.60;36.50;;;;;;;0.89;88.49;101394.47;1720518;83;26153;-47
2020/12/19 04:05:09;;;;;;;75.03;36.10;;;;;;;0.89;88.51;101389.67;1702369;84;25671;-47
2020/12/19 04:07:37;;;;;;;76.75;37.67;;;;;;;0.87;88.46;101385.89;1727485;83;25655;-45
2020/12/19 04:10:07;;;;;;;74.65;36.08;;;;;;;0.89;88.50;101385.67;1720444;83;25654;-45
2020/12/19 04:12:33;;;;;;;80.07;36.63;;;;;;;0.87;88.42;101376.56;1727592;82;25639;-48
2020/12/19 04:15:01;;;;;;;68.33;34.55;;;;;;;0.85;88.28;101372.47;1720447;83;26361;-45
2020/12/19 04:17:28;;;;;;;89.30;35.63;;;;;;;0.84;88.25;101383.66;1727417;83;25651;-46
2020/12/19 04:19:55;;;;;;;74.05;34.55;;;;;;;0.81;88.22;101379.28;1701649;84;25739;-46
2020/12/19 04:22:23;;;;;;;81.72;35.10;;;;;;;0.80;88.18;101388.30;1727420;83;25641;-47
2020/12/19 04:24:50;;;;;;;78.02;35.13;;;;;;;0.77;88.09;101390.05;1720547;83;25731;-46
2020/12/19 04:27:16;;;;;;;95.87;34.50;;;;;;;0.74;88.04;101389.98;1727445;83;26416;-45
2020/12/19 04:29:43;;;;;;;69.77;34.20;;;;;;;0.71;88.04;101392.55;1720311;83;25719;-47
2020/12/19 04:32:10;;;;;;;67.47;33.25;;;;;;;0.71;88.08;101387.75;1727410;83;25643;-45
2020/12/19 04:34:37;;;;;;;88.87;35.10;;;;;;;0.68;88.00;101383.69;1720498;83;25707;-46
2020/12/19 04:37:04;;;;;;;80.67;35.45;;;;;;;0.67;88.12;101380.70;1702215;84;25997;-44
2020/12/19 04:39:31;;;;;;;74.17;35.33;;;;;;;0.66;88.05;101386.25;1727464;83;25924;-45
2020/12/19 04:41:57;;;;;;;81.45;32.98;;;;;;;0.64;87.96;101393.64;1720406;83;25659;-46
2020/12/19 04:44:24;;;;;;;79.27;34.70;;;;;;;0.61;87.97;101387.41;1727420;83;25245;-45
2020/12/19 04:46:50;;;;;;;79.32;32.05;;;;;;;0.58;87.98;101390.00;1720448;83;25596;-46
2020/12/19 04:49:18;;;;;;;83.07;32.60;;;;;;;0.57;88.03;101391.02;1702318;84;25641;-46
2020/12/19 04:51:45;;;;;;;79.15;30.35;;;;;;;0.55;87.99;101399.22;1727456;83;25745;-45
2020/12/19 04:54:12;;;;;;;79.65;32.65;;;;;;;0.55;88.00;101395.75;1720388;83;25704;-45
2020/12/19 04:56:39;;;;;;;77.08;35.33;;;;;;;0.52;87.96;101391.66;1727459;83;25634;-45
2020/12/19 04:59:05;;;;;;;72.22;32.88;;;;;;;0.49;87.89;101393.41;1720414;83;26334;-45
2020/12/19 05:01:32;;;;;;;62.20;31.68;;;;;;;0.46;87.94;101383.22;1727461;83;25609;-45
2020/12/19 05:03:59;;;;;;;73.37;29.98;;;;;;;0.46;87.97;101379.72;1720485;83;26183;-46
2020/12/19 05:06:29;;;;;;;75.32;30.82;;;;;;;0.45;87.94;101376.25;1702291;84;25778;-46
2020/12/19 05:08:58;;;;;;;73.57;31.57;;;;;;;0.41;87.81;101375.06;1727549;83;25702;-46
2020/12/19 05:11:26;;;;;;;;;;;;;;;0.37;87.74;101371.17;1719593;83;25663;-44
2020/12/19 05:13:53;;;;;;;72.25;29.52;;;;;;;0.35;87.84;101377.23;1725645;82;25612;-46
2020/12/19 05:16:20;;;;;;;83.25;29.30;;;;;;;0.30;87.78;101376.54;1725672;83;25971;-45
2020/12/19 05:18:47;;;;;;;89.95;28.02;;;;;;;0.26;87.72;101375.87;1725544;82;25676;-46
2020/12/19 05:21:15;;;;;;;81.67;28.85;;;;;;;0.20;87.69;101372.72;1725716;83;25635;-46
2020/12/19 05:23:44;;;;;;;59.80;28.77;;;;;;;0.15;87.75;101371.53;1725783;83;25708;-45
2020/12/19 05:26:12;;;;;;;91.57;29.23;;;;;;;0.09;87.74;101368.38;1725784;83;25662;-48
2020/12/19 05:28:43;;;;;;;58.28;28.20;;;;;;;0.04;87.77;101370.86;1725722;83;25752;-52
2020/12/19 05:31:11;;;;;;;59.90;26.55;;;;;;;0.02;87.87;101372.08;1725752;82;25760;-45
2020/12/19 05:33:43;;;;;;;67.30;27.57;;;;;;;0.01;87.96;101379.25;1725982;82;25603;-46
2020/12/19 05:36:19;;;;;;;66.97;27.42;;;;;;;-0.03;87.96;101372.22;1725758;83;25692;-46
2020/12/19 05:38:47;;;;;;;66.30;27.13;;;;;;;-0.04;87.96;101375.08;1725222;83;25718;-45
2020/12/19 05:41:22;;;;;;;61.28;27.25;;;;;;;-0.05;88.08;101374.28;1725426;82;26745;-45
2020/12/19 05:43:50;;;;;;;59.23;27.87;;;;;;;-0.07;88.08;101376.83;1725701;83;25651;-45
2020/12/19 05:46:31;;;;;;;56.75;28.02;;;;;;;-0.07;88.21;101375.50;1725650;82;25673;-44
2020/12/19 05:48:59;;;;;;;58.98;28.00;;;;;;;-0.07;88.19;101375.01;1725563;82;25603;-45
2020/12/19 05:51:28;;;;;;;54.10;26.70;;;;;;;-0.06;88.25;101372.63;1725938;83;25627;-46
2020/12/19 05:54:02;;;;;;;62.90;28.67;;;;;;;-0.07;88.29;101372.34;1711464;83;26682;-45
2020/12/19 05:56:34;;;;;;;59.83;28.62;;;;;;;-0.06;88.29;101373.96;1725781;82;25693;-44
2020/12/19 05:59:02;;;;;;;60.43;27.82;;;;;;;-0.07;88.32;101375.01;1711366;83;25878;-45
2020/12/19 06:01:31;;;;;;;57.50;26.80;;;;;;;-0.06;88.37;101377.95;1725754;83;25720;-45
2020/12/19 06:04:02;;;;;;;63.60;28.57;;;;;;;-0.06;88.28;101373.16;1711360;83;25610;-45
2020/12/19 06:06:32;;;;;;;62.95;26.80;;;;;;;-0.08;88.26;101377.35;1725740;83;27144;-45
2020/12/19 06:09:00;;;;;;;83.30;27.67;;;;;;;-0.08;88.31;101380.53;1711292;83;25609;-45
2020/12/19 06:11:31;;;;;;;58.98;27.60;;;;;;;-0.10;88.33;101374.09;1726701;82;25634;-46
2020/12/19 06:14:02;;;;;;;78.80;26.97;;;;;;;-0.11;88.30;101371.12;1720778;83;25719;-45
2020/12/19 06:16:31;;;;;;;69.87;28.47;;;;;;;-0.12;88.38;101375.32;1730385;82;25650;-44
2020/12/19 06:19:17;;;;;;;;;;;;;;;-0.12;88.44;101371.33;1723472;83;25721;-46
2020/12/19 06:21:55;;;;;;;60.35;26.33;;;;;;;-0.11;88.55;101377.77;1710284;83;25660;-46
2020/12/19 06:24:46;;;;;;;75.35;30.25;;;;;;;-0.12;88.50;101381.48;1706564;83;25712;-44
2020/12/19 06:27:25;;;;;;;60.80;28.27;;;;;;;-0.10;88.66;101383.41;1730396;82;25788;-46
2020/12/19 06:29:52;;;;;;;74.45;28.42;;;;;;;-0.11;88.67;101377.77;1708667;82;25579;-45
2020/12/19 06:32:24;;;;;;;58.85;30.62;;;;;;;-0.11;88.83;101377.77;1704383;84;25941;-44
2020/12/19 06:35:12;;;;;;;67.25;31.25;;;;;;;-0.09;88.88;101374.91;1730392;82;25579;-44
2020/12/19 06:37:42;;;;;;;66.25;28.67;;;;;;;-0.05;89.00;101368.95;1720834;83;25650;-44
2020/12/19 06:40:15;;;;;;;73.12;30.15;;;;;;;-0.03;88.99;101368.75;1730544;82;25734;-45
2020/12/19 06:42:44;;;;;;;67.58;27.98;;;;;;;-0.03;88.94;101373.55;1720926;83;25748;-44
2020/12/19 06:45:30;;;;;;;63.87;28.75;;;;;;;-0.02;88.91;101379.67;1730464;82;31904;-45
2020/12/19 06:47:58;;;;;;;68.30;27.50;;;;;;;-0.03;88.97;101374.88;1720878;83;25635;-45
2020/12/19 06:50:29;;;;;;;71.70;29.42;;;;;;;0.00;89.09;101384.29;1730391;82;25637;-44
2020/12/19 06:52:58;;;;;;;72.80;31.25;;;;;;;0.01;89.07;101385.91;1703579;83;25643;-44
2020/12/19 06:55:28;;;;;;;62.70;30.05;;;;;;;0.03;89.13;101386.50;1730709;82;25575;-45
2020/12/19 06:57:57;;;;;;;59.23;30.27;;;;;;;0.05;89.14;101392.95;1723434;83;27065;-44
2020/12/19 07:00:26;;;;;;;77.35;31.15;;;;;;;0.07;89.24;101393.55;1704458;84;25673;-44
2020/12/19 07:02:57;;;;;;;69.37;31.57;;;;;;;0.09;89.16;101395.50;1705908;82;25708;-60
2020/12/19 07:05:30;;;;;;;85.70;29.80;;;;;;;0.13;89.29;101398.84;1720594;83;25669;-46
2020/12/19 07:08:20;;;;;;;69.60;31.35;;;;;;;0.17;89.33;101400.55;1730492;82;25654;-45
2020/12/19 07:10:47;;;;;;;;;;;;;;;0.16;89.16;101401.60;1722921;83;26394;-46
2020/12/19 07:13:15;;;;;;;60.50;28.92;;;;;;;0.18;89.19;101410.99;1709887;83;25653;-49
2020/12/19 07:15:47;;;;;;;62.25;30.80;;;;;;;0.20;89.32;101413.44;1710058;83;25599;-45
2020/12/19 07:18:37;;;;;;;60.92;29.63;;;;;;;0.24;89.32;101416.00;1710034;83;25618;-45
2020/12/19 07:21:07;;;;;;;85.15;30.72;;;;;;;0.26;89.37;101416.59;1727657;83;25665;-45
2020/12/19 07:23:39;;;;;;;74.70;30.88;;;;;;;0.32;89.52;101421.58;1730109;82;25723;-46
2020/12/19 07:26:07;;;;;;;68.97;31.05;;;;;;;0.35;89.42;101415.83;1701706;84;25740;-45
2020/12/19 07:28:34;;;;;;;72.37;30.25;;;;;;;0.35;89.28;101410.51;1727474;83;25691;-45
2020/12/19 07:31:01;;;;;;;81.75;33.30;;;;;;;0.39;89.37;101413.55;1720608;83;25616;-44
2020/12/19 07:33:28;;;;;;;69.87;29.80;;;;;;;0.43;89.40;101406.80;1727514;83;25689;-46
2020/12/19 07:35:57;;;;;;;103.35;32.13;;;;;;;0.46;89.32;101406.34;1720319;83;25952;-45
2020/12/19 07:38:24;;;;;;;67.12;31.52;;;;;;;0.47;89.24;101407.45;1726322;81;25693;-47
2020/12/19 07:40:57;;;;;;;78.55;30.50;;;;;;;0.46;89.06;101409.84;1725223;83;25738;-45
2020/12/19 07:43:24;;;;;;;60.65;29.87;;;;;;;0.48;88.97;101410.95;1726197;82;26283;-49
2020/12/19 07:45:58;;;;;;;67.17;30.35;;;;;;;0.45;88.92;101406.05;1723947;83;25611;-48
2020/12/19 07:48:25;;;;;;;68.15;30.68;;;;;;;0.47;89.15;101410.65;1700549;84;25798;-48
2020/12/19 07:50:52;;;;;;;69.85;30.20;;;;;;;0.51;89.17;101410.51;1726362;82;25571;-57
2020/12/19 07:53:19;;;;;;;78.40;31.42;;;;;;;0.53;89.32;101410.61;1725878;82;26109;-55
2020/12/19 07:55:51;;;;;;;69.25;32.70;;;;;;;0.57;89.26;101410.19;1725486;83;25699;-53
2020/12/19 07:58:19;;;;;;;74.45;30.75;;;;;;;0.60;89.36;101406.58;1695012;84;25784;-56
2020/12/19 08:00:46;;;;;;;74.80;30.37;;;;;;;0.62;89.30;101402.37;1724005;83;26437;-54
2020/12/19 08:03:12;;;;;;;83.05;32.88;;;;;;;0.63;89.39;101408.81;1722466;83;25699;-54
2020/12/19 08:05:39;;;;;;;78.75;33.80;;;;;;;0.65;89.31;101409.93;1722123;83;26433;-56
2020/12/19 08:08:06;;;;;;;96.75;33.15;;;;;;;0.67;89.35;101415.33;1723312;83;25829;-58
2020/12/19 08:10:32;;;;;;;83.15;31.33;;;;;;;0.71;89.47;101413.05;1692745;84;26269;-57
2020/12/19 08:13:00;;;;;;;72.27;33.42;;;;;;;0.70;89.24;101414.91;1723810;82;26302;-56
2020/12/19 08:15:29;;;;;;;79.92;33.42;;;;;;;0.73;89.38;101409.64;1698083;84;25668;-57
2020/12/19 08:18:04;;;;;;;76.20;32.50;;;;;;;0.76;89.37;101410.55;1722577;83;25806;-57
2020/12/19 08:20:34;;;;;;;73.07;32.67;;;;;;;0.78;89.35;101415.66;1722239;83;25690;-57
2020/12/19 08:23:03;;;;;;;74.80;32.83;;;;;;;0.79;89.28;101414.12;1695743;83;26470;-57
2020/12/19 08:25:30;;;;;;;70.87;33.35;;;;;;;0.81;89.30;101413.91;1722630;83;26271;-57
2020/12/19 08:27:57;;;;;;;75.05;34.58;;;;;;;0.86;89.59;101412.74;1722359;82;25266;-57
2020/12/19 08:30:30;;;;;;;71.72;33.85;;;;;;;0.90;89.54;101412.59;1725330;82;26226;-57
2020/12/19 08:33:04;;;;;;;73.42;31.93;;;;;;;0.93;89.65;101411.64;1721287;83;25745;-57
2020/12/19 08:35:43;;;;;;;64.03;27.85;;;;;;;0.99;89.66;101412.64;1688266;84;25765;-58
2020/12/19 08:41:02;;;;;;;80.50;40.03;;;;;;;1.13;89.63;101416.01;1814399;77;35275;-56
2020/12/19 08:43:33;;;;;;;64.50;28.90;;;;;;;1.14;89.54;101411.48;1797905;78;25806;-56
2020/12/19 08:46:09;;;;;;;57.83;27.82;;;;;;;1.17;89.27;101417.72;1758432;80;26964;-56
2020/12/19 08:48:37;;;;;;;66.33;29.82;;;;;;;1.17;89.20;101410.53;1756627;80;25702;-54
2020/12/19 08:51:14;;;;;;;61.00;30.72;;;;;;;1.18;89.29;101410.03;1730779;81;25662;-56
2020/12/19 08:53:40;;;;;;;61.83;30.10;;;;;;;1.22;89.46;101412.55;1726815;81;25832;-55
2020/12/19 08:56:18;;;;;;;64.10;30.45;;;;;;;1.24;89.42;101406.47;1738382;81;25703;-56
2020/12/19 08:58:56;;;;;;;62.75;29.45;;;;;;;1.29;89.69;101400.80;1740061;81;26206;-55
2020/12/19 09:01:23;;;;;;;62.88;28.10;;;;;;;1.35;89.56;101404.95;1749835;79;25924;-56
2020/12/19 09:03:52;;;;;;;60.08;28.57;;;;;;;1.32;89.31;101392.87;1675981;83;25749;-56
2020/12/19 09:06:18;;;;;;;65.05;29.57;;;;;;;1.31;89.14;101391.22;1677812;85;26359;-56
2020/12/19 09:08:47;;;;;;;54.27;26.87;;;;;;;1.35;89.49;101392.96;1677904;84;25625;-55
2020/12/19 09:11:33;;;;;;;63.83;28.27;;;;;;;1.35;89.36;101392.44;1678192;85;25880;-56
2020/12/19 09:14:08;;;;;;;60.43;26.65;;;;;;;1.37;89.37;101389.02;1677999;84;25727;-46
2020/12/19 09:16:53;;;;;;;55.70;27.22;;;;;;;1.41;89.43;101380.87;1678020;85;25724;-47
2020/12/19 09:19:20;;;;;;;56.55;24.90;;;;;;;1.42;89.34;101390.51;1678173;85;25599;-47
2020/12/19 09:21:57;;;;;;;56.05;26.50;;;;;;;1.45;89.35;101394.07;1678733;83;25693;-46
2020/12/19 09:24:25;;;;;;;48.40;23.77;;;;;;;1.43;89.09;101386.81;1678034;83;25789;-46
2020/12/19 09:26:52;;;;;;;54.93;26.97;;;;;;;1.42;89.16;101382.51;1677998;85;25795;-50
2020/12/19 09:29:19;;;;;;;49.10;24.18;;;;;;;1.41;89.10;101377.39;1678039;85;25698;-47
2020/12/19 09:31:46;;;;;;;52.62;25.30;;;;;;;1.42;89.24;101377.70;1678039;85;25753;-46
2020/12/19 09:34:14;;;;;;;53.80;27.13;;;;;;;1.41;89.20;101384.06;1678166;85;25732;-51
2020/12/19 09:36:41;;;;;;;49.67;25.92;;;;;;;1.41;89.09;101381.39;1677824;85;25839;-49
2020/12/19 09:39:07;;;;;;;50.55;23.30;;;;;;;1.43;89.17;101377.98;1677721;84;25715;-46
2020/12/19 09:41:34;;;;;;;48.28;23.52;;;;;;;1.41;89.04;101387.53;1678093;85;26096;-46
2020/12/19 09:44:00;;;;;;;45.43;22.98;;;;;;;1.42;89.12;101378.51;1678010;85;25789;-46
2020/12/19 09:46:28;;;;;;;54.08;25.02;;;;;;;1.42;89.11;101375.84;1678044;85;25812;-47
2020/12/19 09:48:55;;;;;;;54.98;26.12;;;;;;;1.46;89.35;101374.88;1678074;85;26244;-49
2020/12/19 09:51:21;;;;;;;48.52;25.23;;;;;;;1.48;89.17;101372.80;1677475;85;25771;-48
2020/12/19 09:53:48;;;;;;;50.80;25.05;;;;;;;1.47;89.13;101381.33;1677513;85;25713;-49
2020/12/19 09:56:14;;;;;;;49.58;24.63;;;;;;;1.46;88.92;101374.38;1677506;85;25718;-59
2020/12/19 09:58:41;;;;;;;52.73;26.75;;;;;;;1.47;89.06;101378.66;1677548;85;25693;-63
2020/12/19 10:01:08;;;;;;;46.95;23.40;;;;;;;1.47;89.07;101377.86;1677625;85;26187;-59
2020/12/19 10:03:34;;;;;;;52.67;25.55;;;;;;;1.47;89.04;101388.52;1650171;83;25763;-58
2020/12/19 10:06:01;;;;;;;54.90;27.15;;;;;;;1.48;88.89;101384.80;1651362;86;25697;-59
2020/12/19 10:08:28;;;;;;;46.30;22.73;;;;;;;1.47;89.04;101386.66;1644433;87;25622;-59
2020/12/19 10:10:54;;;;;;;49.38;23.38;;;;;;;1.45;88.58;101382.08;1644425;87;25656;-58
2020/12/19 10:13:21;;;;;;;46.65;22.85;;;;;;;1.45;88.80;101386.07;1644344;87;27092;-60
2020/12/19 10:15:48;;;;;;;45.20;22.13;;;;;;;1.47;88.61;101381.86;1644362;87;25617;-63
2020/12/19 10:18:14;;;;;;;43.52;22.22;;;;;;;1.46;88.48;101382.87;1644310;87;25713;-61
2020/12/19 10:20:41;;;;;;;43.70;22.00;;;;;;;1.41;88.13;101383.53;1644229;87;26549;-59
2020/12/19 10:23:07;;;;;;;45.58;22.02;;;;;;;1.35;88.08;101384.44;1644473;87;25598;-58
2020/12/19 10:25:34;;;;;;;49.85;24.18;;;;;;;1.28;87.99;101379.70;1644320;87;25793;-58
2020/12/19 10:28:01;;;;;;;49.53;23.65;;;;;;;1.26;88.13;101379.91;1644454;87;25653;-58
2020/12/19 10:30:27;;;;;;;44.70;22.50;;;;;;;1.24;88.25;101381.15;1644313;87;25625;-59
2020/12/19 10:32:54;;;;;;;48.87;23.60;;;;;;;1.22;88.30;101388.56;1644309;87;25318;-58
2020/12/19 10:35:20;;;;;;;47.83;24.60;;;;;;;1.20;88.37;101382.64;1644306;87;25636;-60
2020/12/19 10:37:47;;;;;;;48.48;23.80;;;;;;;1.21;88.51;101384.25;1644377;87;25736;-52
2020/12/19 10:40:14;;;;;;;56.23;27.40;;;;;;;1.22;88.78;101377.37;1644728;87;26419;-51
2020/12/19 10:42:41;;;;;;;50.40;24.20;;;;;;;1.28;89.06;101383.69;1671424;85;25606;-51
2020/12/19 10:45:08;;;;;;;42.13;21.00;;;;;;;1.31;88.97;101375.23;1669577;85;25563;-50
2020/12/19 10:47:34;;;;;;;41.68;22.10;;;;;;;1.27;88.55;101394.05;1653079;86;25790;-51
2020/12/19 10:50:01;;;;;;;42.90;22.17;;;;;;;1.26;88.49;101392.41;1652827;86;25735;-51
2020/12/19 10:52:27;;;;;;;37.63;19.90;;;;;;;1.24;88.61;101391.31;1653001;86;25711;-52
2020/12/19 10:54:54;;;;;;;36.55;20.88;;;;;;;1.24;88.62;101389.98;1662460;86;25627;-51
2020/12/19 10:57:21;;;;;;;38.35;20.68;;;;;;;1.23;88.35;101382.20;1662457;86;25621;-52
2020/12/19 10:59:48;;;;;;;39.25;20.08;;;;;;;1.19;88.29;101378.33;1662510;86;25693;-58
2020/12/19 11:02:15;;;;;;;43.10;20.32;;;;;;;1.17;88.34;101383.88;1657810;83;25741;-50
2020/12/19 11:04:43;;;;;;;40.08;19.55;;;;;;;1.11;88.14;101380.25;1656527;85;25722;-52
2020/12/19 11:07:09;;;;;;;32.67;18.30;;;;;;;1.01;88.19;101371.13;1681739;85;25842;-48
2020/12/19 11:09:36;;;;;;;34.35;18.98;;;;;;;1.04;88.28;101372.00;1684756;84;26332;-49
2020/12/19 11:12:03;;;;;;;39.80;19.90;;;;;;;1.04;88.53;101376.83;1684654;84;25777;-51
2020/12/19 11:14:31;;;;;;;36.28;19.48;;;;;;;1.06;88.75;101371.29;1684918;84;26232;-46
2020/12/19 11:16:58;;;;;;;40.48;20.20;;;;;;;1.05;88.55;101369.65;1684596;84;25689;-49
2020/12/19 11:19:24;;;;;;;42.55;21.10;;;;;;;1.01;88.47;101357.28;1684832;84;25831;-50
2020/12/19 11:21:51;;;;;;;47.35;22.60;;;;;;;0.99;88.55;101345.20;1684787;84;26348;-52
2020/12/19 11:24:18;;;;;;;48.45;23.38;;;;;;;0.98;88.65;101353.72;1685137;84;26011;-54
2020/12/19 11:26:47;;;;;;;47.03;23.25;;;;;;;0.96;88.79;101346.47;1685228;84;26234;-54